Time;durP1;ratioP1;P1;durP2;ratioP2;P2;SDS_P1;SDS_P2;PMS_P1;PMS_P2;Temp;Humidity;BMP_temperature;BMP_pressure;BME280_temperature;BME280_humidity;BME280_pressure;Samples;Min_cycle;Max_cycle;Signal;HPM_P1;HPM_P2
2023/02/01 00:02:00;;;;;;;27.50;8.27;;;5.00;99.90;;;;;;5081271;28;20028;-81
2023/02/01 00:04:26;;;;;;;18.30;6.80;;;5.00;99.90;;;;;;5066865;28;20032;-81
2023/02/01 00:06:51;;;;;;;17.92;5.53;;;5.00;99.90;;;;;;5086199;28;20102;-82
2023/02/01 00:09:17;;;;;;;13.27;7.45;;;4.90;99.90;;;;;;5065874;28;20438;-81
2023/02/01 00:11:42;;;;;;;22.67;6.85;;;4.90;99.90;;;;;;5055145;28;20507;-81
2023/02/01 00:14:08;;;;;;;19.42;5.38;;;4.90;99.90;;;;;;5056397;28;20523;-82
2023/02/01 00:16:33;;;;;;;21.00;7.32;;;4.90;99.90;;;;;;5070339;28;20036;-81
2023/02/01 00:19:04;;;;;;;20.42;5.68;;;4.90;99.90;;;;;;5072528;28;20040;-82
2023/02/01 00:21:30;;;;;;;17.02;5.93;;;4.90;99.90;;;;;;5054371;28;20060;-82
2023/02/01 00:23:55;;;;;;;24.50;6.57;;;4.90;99.90;;;;;;5055099;28;20063;-81
2023/02/01 00:26:33;;;;;;;26.42;7.20;;;4.90;99.90;;;;;;5072086;28;20040;-81
2023/02/01 00:29:00;;;;;;;11.95;3.28;;;4.90;99.90;;;;;;5059783;28;20032;-81
2023/02/01 00:31:25;;;;;;;11.50;4.03;;;4.80;99.90;;;;;;5081135;28;20025;-82
2023/02/01 00:33:51;;;;;;;23.02;4.78;;;4.90;99.90;;;;;;5058941;28;20085;-80
2023/02/01 00:36:16;;;;;;;17.05;4.85;;;4.90;99.90;;;;;;5074666;28;20089;-81
2023/02/01 00:38:42;;;;;;;10.73;2.97;;;4.90;99.90;;;;;;5064973;28;20025;-81
2023/02/01 00:41:10;;;;;;;22.90;5.38;;;4.90;99.90;;;;;;5065584;27;20061;-80
2023/02/01 00:43:36;;;;;;;18.15;4.43;;;4.90;99.90;;;;;;5058545;28;20027;-81
2023/02/01 00:46:01;;;;;;;15.02;4.60;;;4.90;99.90;;;;;;5060430;28;20036;-81
2023/02/01 00:48:27;;;;;;;14.93;4.00;;;4.90;99.90;;;;;;5057809;28;20029;-82
2023/02/01 00:50:53;;;;;;;13.07;4.28;;;4.90;99.90;;;;;;5062964;28;20399;-81
2023/02/01 00:53:18;;;;;;;7.18;2.55;;;4.90;99.90;;;;;;5075375;28;20035;-82
2023/02/01 00:55:47;;;;;;;19.42;3.53;;;5.00;99.90;;;;;;5052987;28;20039;-81
2023/02/01 00:58:12;;;;;;;16.13;4.38;;;4.90;99.90;;;;;;5046991;28;20040;-81
2023/02/01 01:00:38;;;;;;;12.02;2.25;;;4.90;99.90;;;;;;5053081;28;20032;-81
2023/02/01 01:03:17;;;;;;;4.57;1.95;;;4.90;99.90;;;;;;5058746;28;20040;-80
2023/02/01 01:05:44;;;;;;;24.70;6.32;;;4.90;99.90;;;;;;5065917;28;20044;-81
2023/02/01 01:08:09;;;;;;;16.52;4.93;;;4.90;99.90;;;;;;5059472;27;20703;-81
2023/02/01 01:10:35;;;;;;;14.60;5.43;;;4.90;99.90;;;;;;5075895;28;20029;-81
2023/02/01 01:13:00;;;;;;;13.70;3.10;;;4.90;99.90;;;;;;5050812;28;20024;-82
2023/02/01 01:15:26;;;;;;;16.23;5.25;;;5.00;99.90;;;;;;5083087;27;20400;-81
2023/02/01 01:17:51;;;;;;;14.55;4.75;;;4.90;99.90;;;;;;5079980;28;20040;-81
2023/02/01 01:20:17;;;;;;;19.25;4.90;;;5.00;99.90;;;;;;5051099;28;20028;-80
2023/02/01 01:22:43;;;;;;;10.05;2.53;;;5.00;99.90;;;;;;5034802;28;20051;-80
2023/02/01 01:25:08;;;;;;;16.30;4.63;;;4.90;99.90;;;;;;5046398;28;20120;-81
2023/02/01 01:27:34;;;;;;;17.75;4.40;;;5.00;99.90;;;;;;5047176;27;20441;-81
2023/02/01 01:30:00;;;;;;;19.77;5.57;;;5.00;99.90;;;;;;5059305;28;20039;-81
2023/02/01 01:32:25;;;;;;;15.00;4.80;;;5.00;99.90;;;;;;5043297;28;20032;-81
2023/02/01 01:34:51;;;;;;;12.30;4.15;;;5.00;99.90;;;;;;5077144;28;20063;-81
2023/02/01 01:37:16;;;;;;;10.27;3.75;;;5.00;99.90;;;;;;5049817;28;20102;-81
2023/02/01 01:39:42;;;;;;;18.48;4.15;;;5.10;99.90;;;;;;5059505;28;20501;-81
2023/02/01 01:42:11;;;;;;;16.23;5.47;;;5.10;99.90;;;;;;5062232;28;20561;-80
2023/02/01 01:45:03;;;;;;;11.32;4.78;;;5.10;99.90;;;;;;5063014;28;20028;-81
2023/02/01 01:47:32;;;;;;;13.93;3.60;;;5.00;99.90;;;;;;5076284;27;20036;-81
2023/02/01 01:49:57;;;;;;;16.73;4.95;;;5.00;99.90;;;;;;5061191;28;20051;-81
2023/02/01 01:52:23;;;;;;;22.83;6.18;;;5.10;99.90;;;;;;5078821;28;20527;-81
2023/02/01 01:54:49;;;;;;;12.38;3.85;;;5.10;99.90;;;;;;5063153;28;20513;-81
2023/02/01 01:57:18;;;;;;;10.95;4.47;;;5.10;99.90;;;;;;5061352;28;20968;-81
2023/02/01 01:59:47;;;;;;;16.08;4.60;;;5.00;99.90;;;;;;5058590;28;20033;-81
2023/02/01 02:02:12;;;;;;;11.70;3.72;;;5.10;99.90;;;;;;5042890;27;20085;-81
2023/02/01 02:04:38;;;;;;;13.68;4.10;;;5.10;99.90;;;;;;5044672;28;20029;-81
2023/02/01 02:07:21;;;;;;;10.45;3.60;;;5.00;99.90;;;;;;5058536;28;20446;-82
2023/02/01 02:09:48;;;;;;;23.88;4.68;;;5.00;99.90;;;;;;5062602;28;20130;-81
2023/02/01 02:12:14;;;;;;;14.43;5.63;;;5.00;99.90;;;;;;5067995;28;20119;-81
2023/02/01 02:14:39;;;;;;;16.27;3.83;;;5.00;99.90;;;;;;5087236;28;20032;-80
2023/02/01 02:17:17;;;;;;;16.90;4.50;;;5.00;99.90;;;;;;5083880;28;20031;-80
2023/02/01 02:19:46;;;;;;;24.42;5.82;;;5.00;99.90;;;;;;5086737;28;20482;-81
2023/02/01 02:22:43;;;;;;;21.77;6.22;;;5.10;99.90;;;;;;5084480;28;20103;-81
2023/02/01 02:25:19;;;;;;;19.42;5.55;;;5.00;99.90;;;;;;5086410;28;20073;-80
2023/02/01 02:27:56;;;;;;;;;;;5.00;99.90;;;;;;5081150;28;20120;-81
2023/02/01 02:30:40;;;;;;;11.57;2.03;;;5.00;99.90;;;;;;5082207;28;19912;-81
2023/02/01 02:33:49;;;;;;;11.07;2.53;;;5.00;99.90;;;;;;5088579;28;20055;-80
2023/02/01 02:36:19;;;;;;;9.00;3.83;;;5.00;99.90;;;;;;5055650;28;20834;-81
2023/02/01 02:38:56;;;;;;;15.18;3.67;;;5.00;99.90;;;;;;5076045;28;20399;-81
2023/02/01 02:47:43;;;;;;;14.45;3.60;;;4.90;99.90;;;;;;5083009;28;20038;-82
2023/02/01 03:04:56;;;;;;;12.38;2.45;;;5.00;99.90;;;;;;5068997;28;20504;-80
2023/02/01 03:07:43;;;;;;;10.43;2.83;;;5.00;99.90;;;;;;5073573;28;20479;-81
2023/02/01 03:10:16;;;;;;;8.23;2.42;;;4.90;99.90;;;;;;5090190;28;20058;-79
2023/02/01 03:12:56;;;;;;;10.35;2.60;;;4.80;99.90;;;;;;5089752;28;20024;-79
2023/02/01 03:15:30;;;;;;;7.40;2.30;;;4.80;99.90;;;;;;5065292;28;20115;-78
2023/02/01 03:17:55;;;;;;;16.65;3.38;;;4.90;99.90;;;;;;5062580;28;20119;-78
2023/02/01 03:20:21;;;;;;;5.85;1.98;;;4.80;99.90;;;;;;5064176;28;20043;-78
2023/02/01 03:22:47;;;;;;;5.43;2.28;;;4.80;99.90;;;;;;5075410;28;20036;-78
2023/02/01 03:25:15;;;;;;;15.32;3.58;;;4.80;99.90;;;;;;5058140;28;20033;-78
2023/02/01 03:27:42;;;;;;;14.07;2.75;;;4.80;99.90;;;;;;5040844;28;20506;-78
2023/02/01 03:30:17;;;;;;;20.00;2.75;;;4.70;99.90;;;;;;5052606;28;20064;-79
2023/02/01 03:32:59;;;;;;;13.90;3.17;;;4.80;99.90;;;;;;5047347;28;20063;-78
2023/02/01 03:35:44;;;;;;;9.75;2.78;;;4.70;99.90;;;;;;5053615;28;20286;-78
2023/02/01 03:38:21;;;;;;;21.20;4.18;;;4.80;99.90;;;;;;5083184;27;20039;-78
2023/02/01 03:40:53;;;;;;;9.15;2.72;;;4.90;99.90;;;;;;5064858;28;20065;-79
2023/02/01 03:43:19;;;;;;;11.23;3.22;;;4.80;99.90;;;;;;5083098;28;20472;-78
2023/02/01 03:45:48;;;;;;;19.80;2.72;;;4.90;99.90;;;;;;5054926;28;20043;-78
2023/02/01 03:48:13;;;;;;;11.60;2.25;;;4.90;99.90;;;;;;5068450;28;20395;-78
2023/02/01 03:50:42;;;;;;;8.98;1.70;;;4.90;99.90;;;;;;5069963;28;20023;-78
2023/02/01 03:53:09;;;;;;;12.65;2.60;;;4.80;99.90;;;;;;5081352;28;20404;-79
2023/02/01 03:55:35;;;;;;;15.88;3.45;;;4.90;99.90;;;;;;5069173;28;20437;-78
2023/02/01 03:58:14;;;;;;;17.23;3.88;;;4.90;99.90;;;;;;5068582;28;20181;-78
2023/02/01 04:00:40;;;;;;;12.23;3.53;;;4.90;99.90;;;;;;5071947;28;20142;-78
2023/02/01 04:03:06;;;;;;;12.27;2.65;;;4.90;99.90;;;;;;5085469;28;20119;-78
2023/02/01 04:05:31;;;;;;;17.00;3.08;;;4.90;99.90;;;;;;5054985;28;20036;-78
2023/02/01 04:07:57;;;;;;;10.23;3.08;;;4.90;99.90;;;;;;5072085;28;20036;-78
2023/02/01 04:10:23;;;;;;;5.63;1.75;;;4.90;99.90;;;;;;5069898;28;20119;-78
2023/02/01 04:12:48;;;;;;;18.90;3.45;;;4.90;99.90;;;;;;5052279;28;20123;-78
2023/02/01 04:15:14;;;;;;;16.13;3.30;;;5.00;99.90;;;;;;5067126;28;20035;-78
2023/02/01 04:17:39;;;;;;;22.30;3.17;;;5.00;99.90;;;;;;5091621;28;20713;-78
2023/02/01 04:20:05;;;;;;;19.52;4.38;;;5.00;99.90;;;;;;5088717;28;20032;-78
2023/02/01 04:22:31;;;;;;;19.83;3.83;;;4.90;99.90;;;;;;5050841;28;20161;-78
2023/02/01 04:24:56;;;;;;;9.30;2.22;;;4.90;99.90;;;;;;5052721;28;20077;-78
2023/02/01 04:27:22;;;;;;;18.83;3.42;;;5.00;99.90;;;;;;5056995;28;20116;-78
2023/02/01 04:29:49;;;;;;;6.82;1.77;;;4.90;99.90;;;;;;5070733;28;20111;-78
2023/02/01 04:32:15;;;;;;;24.35;4.25;;;5.00;99.90;;;;;;5075954;28;20035;-78
2023/02/01 04:34:41;;;;;;;13.38;3.40;;;5.00;99.90;;;;;;5085158;28;20164;-79
2023/02/01 04:37:07;;;;;;;20.10;3.55;;;5.10;99.90;;;;;;5049509;28;20144;-79
2023/02/01 04:39:32;;;;;;;18.58;4.00;;;5.00;99.90;;;;;;5067432;28;20420;-78
2023/02/01 04:41:58;;;;;;;19.58;6.55;;;5.00;99.90;;;;;;5056149;28;20084;-78
2023/02/01 04:44:24;;;;;;;14.75;4.53;;;5.00;99.90;;;;;;5067748;28;20487;-78
2023/02/01 04:46:49;;;;;;;17.15;3.72;;;5.00;99.90;;;;;;5069700;28;20033;-78
2023/02/01 04:49:15;;;;;;;23.48;4.03;;;5.00;99.90;;;;;;5076308;28;20502;-78
2023/02/01 04:51:40;;;;;;;22.60;3.22;;;5.00;99.90;;;;;;5068933;28;20029;-79
2023/02/01 04:54:06;;;;;;;15.95;3.42;;;5.00;99.90;;;;;;5055987;28;20396;-78
2023/02/01 04:56:32;;;;;;;10.93;3.45;;;5.00;99.90;;;;;;5070923;28;20209;-78
2023/02/01 04:58:57;;;;;;;20.70;3.75;;;5.00;99.90;;;;;;5088189;28;20046;-78
2023/02/01 05:01:24;;;;;;;15.77;3.75;;;5.00;99.90;;;;;;5055701;28;20081;-78
2023/02/01 05:03:50;;;;;;;18.02;3.15;;;5.00;99.90;;;;;;5068643;28;20043;-78
2023/02/01 05:06:16;;;;;;;12.88;2.72;;;5.10;99.90;;;;;;5052616;28;20044;-78
2023/02/01 05:08:41;;;;;;;13.15;3.00;;;5.10;99.90;;;;;;5074913;28;20032;-78
2023/02/01 05:13:47;;;;;;;18.00;3.35;;;5.10;99.90;;;;;;5051327;28;20036;-78
2023/02/01 05:13:52;;;;;;;10.10;2.83;;;5.00;99.90;;;;;;5063327;27;20061;-78
2023/02/01 05:16:18;;;;;;;7.80;1.92;;;5.00;99.90;;;;;;5055170;28;20032;-78
2023/02/01 05:18:43;;;;;;;15.93;3.00;;;5.00;99.90;;;;;;5077712;28;20032;-78
2023/02/01 05:21:09;;;;;;;21.50;3.90;;;5.00;99.90;;;;;;5063546;28;20564;-78
2023/02/01 05:24:09;;;;;;;10.52;2.90;;;4.90;99.90;;;;;;5060833;28;20028;-78
2023/02/01 05:26:20;;;;;;;21.30;3.23;;;4.90;99.90;;;;;;5078937;28;20035;-78
2023/02/01 05:28:45;;;;;;;21.40;3.72;;;4.90;99.90;;;;;;5083869;28;20040;-78
2023/02/01 05:31:11;;;;;;;21.63;4.00;;;4.90;99.90;;;;;;5078128;28;20042;-78
2023/02/01 05:33:36;;;;;;;17.20;3.28;;;4.90;99.90;;;;;;5078052;28;20019;-78
2023/02/01 05:36:02;;;;;;;21.40;3.13;;;4.90;99.90;;;;;;5017571;28;20033;-78
2023/02/01 05:38:29;;;;;;;8.25;2.63;;;5.00;99.90;;;;;;5054285;28;20693;-78
2023/02/01 05:40:55;;;;;;;19.67;3.08;;;4.90;99.90;;;;;;5053290;28;20047;-78
2023/02/01 05:43:21;;;;;;;15.73;2.28;;;4.80;99.90;;;;;;5030907;28;20054;-78
2023/02/01 05:45:47;;;;;;;13.98;3.50;;;4.80;99.90;;;;;;5054027;28;20028;-78
2023/02/01 05:48:13;;;;;;;17.95;2.75;;;4.90;99.90;;;;;;5039522;28;20028;-78
2023/02/01 05:50:38;;;;;;;20.48;2.95;;;4.80;99.90;;;;;;5073526;27;20051;-78
2023/02/01 05:53:04;;;;;;;16.98;3.22;;;4.80;99.90;;;;;;5059632;28;20082;-78
2023/02/01 05:55:29;;;;;;;14.45;2.15;;;4.80;99.90;;;;;;5043250;28;20029;-78
2023/02/01 05:57:55;;;;;;;12.35;2.33;;;4.70;99.90;;;;;;5059800;28;20032;-79
2023/02/01 06:00:21;;;;;;;8.07;2.10;;;4.70;99.90;;;;;;5048148;28;20143;-78
2023/02/01 06:02:47;;;;;;;17.88;3.22;;;4.70;99.90;;;;;;5043648;28;20028;-78
2023/02/01 06:05:12;;;;;;;21.65;4.28;;;4.70;99.90;;;;;;5034568;28;20039;-79
2023/02/01 06:07:38;;;;;;;20.88;4.60;;;4.70;99.90;;;;;;5067867;28;20237;-79
2023/02/01 06:10:04;;;;;;;13.05;3.13;;;4.60;99.90;;;;;;5061796;28;20032;-79
2023/02/01 06:12:30;;;;;;;14.80;3.22;;;4.70;99.90;;;;;;5054793;28;20560;-79
2023/02/01 06:14:55;;;;;;;10.27;3.45;;;4.50;99.90;;;;;;5036186;28;20063;-78
2023/02/01 06:17:21;;;;;;;23.13;4.80;;;4.50;99.90;;;;;;5052751;28;20109;-78
2023/02/01 06:19:48;;;;;;;11.27;2.55;;;4.70;99.90;;;;;;5054637;28;20066;-79
2023/02/01 06:22:13;;;;;;;13.98;2.55;;;4.70;99.90;;;;;;5051881;28;20505;-79
2023/02/01 06:24:40;;;;;;;26.92;4.57;;;4.70;99.90;;;;;;5058516;28;20024;-79
2023/02/01 06:27:06;;;;;;;10.63;2.70;;;4.70;99.90;;;;;;5043538;28;20039;-79
2023/02/01 06:29:32;;;;;;;16.05;3.38;;;4.70;99.90;;;;;;5067250;28;20509;-79
2023/02/01 06:31:58;;;;;;;16.52;3.15;;;4.80;99.90;;;;;;5071497;28;20036;-79
2023/02/01 06:34:24;;;;;;;11.27;3.03;;;4.90;99.90;;;;;;5050444;28;20121;-79
2023/02/01 06:36:49;;;;;;;11.48;2.15;;;4.90;99.90;;;;;;5052442;28;20459;-79
2023/02/01 06:39:15;;;;;;;22.65;4.05;;;4.90;99.90;;;;;;5022098;28;20044;-79
2023/02/01 06:41:42;;;;;;;7.63;2.08;;;4.90;99.90;;;;;;5047624;28;20555;-79
2023/02/01 06:44:08;;;;;;;12.30;3.00;;;4.90;99.90;;;;;;5058984;28;20032;-79
2023/02/01 06:46:33;;;;;;;16.08;4.28;;;5.00;99.90;;;;;;5065333;28;20089;-79
2023/02/01 06:48:59;;;;;;;18.58;3.88;;;4.90;99.90;;;;;;5050315;28;20051;-78
2023/02/01 06:51:26;;;;;;;15.25;3.30;;;5.00;99.90;;;;;;5049635;28;20871;-78
2023/02/01 06:53:52;;;;;;;11.98;3.22;;;5.00;99.90;;;;;;5063659;28;20755;-78
2023/02/01 06:56:17;;;;;;;21.58;3.78;;;5.00;99.90;;;;;;5068643;28;20037;-78
2023/02/01 06:58:44;;;;;;;19.33;2.67;;;5.00;99.90;;;;;;5052781;28;20028;-79
2023/02/01 07:01:09;;;;;;;9.40;2.17;;;5.00;99.90;;;;;;5070656;28;20071;-78
2023/02/01 07:03:35;;;;;;;19.25;2.55;;;5.10;99.90;;;;;;5057705;28;20068;-78
2023/02/01 07:06:01;;;;;;;6.20;2.13;;;5.10;99.90;;;;;;5062955;28;20616;-79
2023/02/01 07:08:27;;;;;;;20.33;3.60;;;5.10;99.90;;;;;;5062242;28;20107;-79
2023/02/01 07:10:53;;;;;;;20.92;3.38;;;5.10;99.90;;;;;;5068848;28;20024;-79
2023/02/01 07:13:18;;;;;;;10.00;1.67;;;5.10;99.90;;;;;;5052514;28;20040;-79
2023/02/01 07:15:46;;;;;;;13.68;3.45;;;5.10;99.90;;;;;;5057864;28;20028;-79
2023/02/01 07:18:14;;;;;;;13.43;2.85;;;5.10;99.90;;;;;;5047571;28;20028;-79
2023/02/01 07:20:39;;;;;;;10.52;2.47;;;5.10;99.90;;;;;;5078448;28;20027;-79
2023/02/01 07:23:05;;;;;;;17.52;2.58;;;5.20;99.90;;;;;;5049841;28;20032;-79
2023/02/01 07:25:30;;;;;;;8.80;2.35;;;5.20;99.90;;;;;;5047585;28;20047;-79
2023/02/01 07:27:56;;;;;;;18.77;3.80;;;5.20;99.90;;;;;;5067638;28;20127;-79
2023/02/01 07:30:21;;;;;;;11.95;2.78;;;5.20;99.90;;;;;;5083408;28;20032;-78
2023/02/01 07:32:47;;;;;;;13.43;2.45;;;5.20;99.90;;;;;;5080157;28;20073;-79
2023/02/01 07:35:13;;;;;;;12.68;2.35;;;5.20;99.90;;;;;;5064778;28;20028;-78
2023/02/01 07:37:39;;;;;;;19.25;3.70;;;5.30;99.90;;;;;;5047186;28;20024;-78
2023/02/01 07:40:06;;;;;;;20.13;4.47;;;5.30;99.90;;;;;;5070693;28;20415;-79
2023/02/01 07:42:31;;;;;;;22.27;4.20;;;5.30;99.90;;;;;;5053377;28;20091;-79
2023/02/01 07:44:57;;;;;;;26.20;4.90;;;5.30;99.90;;;;;;5066074;28;20495;-78
2023/02/01 07:47:23;;;;;;;24.92;3.67;;;5.40;99.90;;;;;;5088277;28;20032;-78
2023/02/01 07:49:48;;;;;;;8.07;2.20;;;5.30;99.90;;;;;;5068955;28;20402;-78
2023/02/01 07:52:17;;;;;;;13.55;2.53;;;5.40;99.90;;;;;;5061680;28;20407;-78
2023/02/01 07:54:43;;;;;;;16.17;4.18;;;5.40;99.90;;;;;;5076453;28;20028;-78
2023/02/01 07:57:08;;;;;;;18.27;3.70;;;5.30;99.90;;;;;;5056100;28;20051;-79
2023/02/01 07:59:34;;;;;;;20.35;3.25;;;5.40;99.90;;;;;;5073050;28;20447;-79
2023/02/01 08:02:00;;;;;;;19.38;3.72;;;5.40;99.90;;;;;;5076717;28;20033;-79
2023/02/01 08:04:25;;;;;;;19.42;3.13;;;5.40;99.90;;;;;;5058118;28;20047;-79
2023/02/01 08:06:51;;;;;;;12.57;3.97;;;5.40;99.90;;;;;;5071170;28;20032;-79
2023/02/01 08:09:16;;;;;;;16.63;3.85;;;5.50;99.90;;;;;;5065509;28;20079;-79
2023/02/01 08:11:42;;;;;;;22.42;3.55;;;5.50;99.90;;;;;;5054326;28;20031;-79
2023/02/01 08:14:08;;;;;;;31.60;6.90;;;5.40;99.90;;;;;;5068285;28;20016;-79
2023/02/01 08:16:35;;;;;;;9.68;2.30;;;5.50;99.90;;;;;;5057444;28;20556;-79
2023/02/01 08:19:00;;;;;;;13.82;2.85;;;5.50;99.90;;;;;;5064827;28;20135;-78
2023/02/01 08:21:35;;;;;;;13.15;3.20;;;5.50;99.90;;;;;;5075839;28;20546;-79
2023/02/01 08:24:02;;;;;;;26.98;4.07;;;5.50;99.90;;;;;;5074863;28;20046;-79
2023/02/01 08:26:27;;;;;;;12.15;3.00;;;5.60;99.90;;;;;;5072096;28;20032;-79
2023/02/01 08:28:57;;;;;;;20.33;3.05;;;5.60;99.90;;;;;;5075954;28;20028;-79
2023/02/01 08:31:24;;;;;;;22.35;3.92;;;5.60;99.90;;;;;;5083138;28;20062;-79
2023/02/01 08:33:51;;;;;;;20.92;4.65;;;5.70;99.90;;;;;;5084422;28;20536;-78
2023/02/01 08:36:17;;;;;;;14.43;3.13;;;5.70;99.90;;;;;;5065868;28;20483;-79
2023/02/01 08:38:42;;;;;;;15.80;3.58;;;5.70;99.90;;;;;;5068644;28;20039;-78
2023/02/01 08:41:10;;;;;;;23.20;4.63;;;5.70;99.90;;;;;;5040348;28;20565;-79
2023/02/01 08:43:36;;;;;;;26.08;4.20;;;5.80;99.90;;;;;;5071122;28;20032;-79
2023/02/01 08:46:03;;;;;;;9.05;1.98;;;5.70;99.90;;;;;;5082521;28;20502;-79
2023/02/01 08:48:28;;;;;;;20.45;3.30;;;5.80;99.90;;;;;;5080241;28;20574;-79
2023/02/01 08:50:54;;;;;;;25.13;3.90;;;5.80;99.90;;;;;;5071995;28;20028;-78
2023/02/01 08:53:20;;;;;;;16.88;3.55;;;5.80;99.90;;;;;;5067605;28;20036;-78
2023/02/01 08:55:46;;;;;;;22.38;3.88;;;5.80;99.90;;;;;;5054423;28;20028;-79
2023/02/01 08:58:13;;;;;;;17.30;3.10;;;5.90;99.90;;;;;;5068376;28;20050;-79
2023/02/01 09:00:39;;;;;;;22.88;4.13;;;5.90;99.90;;;;;;5078885;28;20030;-79
2023/02/01 09:03:05;;;;;;;20.55;3.58;;;6.00;99.90;;;;;;5050188;28;20140;-79
2023/02/01 09:05:31;;;;;;;11.30;3.10;;;6.00;99.90;;;;;;5070736;28;20036;-79
2023/02/01 09:07:56;;;;;;;21.67;4.03;;;6.00;99.90;;;;;;5064233;28;20041;-79
2023/02/01 09:10:22;;;;;;;20.08;4.00;;;6.00;99.90;;;;;;5051689;28;20534;-78
2023/02/01 09:12:47;;;;;;;23.08;4.13;;;6.00;99.90;;;;;;5086631;28;20177;-78
2023/02/01 09:15:13;;;;;;;12.35;3.28;;;6.00;99.90;;;;;;5054154;28;20159;-78
2023/02/01 09:17:39;;;;;;;18.67;4.15;;;6.00;99.90;;;;;;5087027;28;20058;-78
2023/02/01 09:20:05;;;;;;;12.82;4.95;;;6.00;99.90;;;;;;5070981;28;20093;-79
2023/02/01 09:22:30;;;;;;;13.38;3.08;;;6.00;99.90;;;;;;5052968;28;20036;-78
2023/02/01 09:24:56;;;;;;;13.45;4.28;;;6.00;99.90;;;;;;5070390;28;20122;-79
2023/02/01 09:27:21;;;;;;;19.80;5.40;;;6.10;99.90;;;;;;5088608;28;20036;-79
2023/02/01 09:29:52;;;;;;;11.40;3.85;;;6.10;99.90;;;;;;5066388;28;20030;-79
2023/02/01 09:32:21;;;;;;;7.53;3.17;;;6.10;99.90;;;;;;5069127;28;20024;-79
2023/02/01 09:34:46;;;;;;;19.10;4.53;;;6.10;99.90;;;;;;5079820;28;20122;-79
2023/02/01 09:37:12;;;;;;;19.58;2.45;;;6.10;99.90;;;;;;5048537;28;20032;-79
2023/02/01 09:39:37;;;;;;;14.80;3.53;;;6.20;99.90;;;;;;5039471;28;20028;-79
2023/02/01 09:42:17;;;;;;;10.68;3.55;;;6.10;99.90;;;;;;5068102;28;20032;-79
2023/02/01 09:44:53;;;;;;;11.75;2.92;;;6.20;99.90;;;;;;5087954;28;20127;-79
2023/02/01 09:47:20;;;;;;;17.77;3.63;;;6.20;99.90;;;;;;5072286;28;20082;-79
2023/02/01 09:50:02;;;;;;;12.82;2.90;;;6.30;99.90;;;;;;5062612;28;20039;-80
2023/02/01 09:52:42;;;;;;;17.40;5.38;;;6.30;99.90;;;;;;5031629;28;20043;-80
2023/02/01 09:55:21;;;;;;;18.08;4.40;;;6.30;99.90;;;;;;5042115;28;20408;-80
2023/02/01 09:58:01;;;;;;;15.80;4.85;;;6.30;99.90;;;;;;5059736;28;20115;-82
2023/02/01 10:00:33;;;;;;;18.48;4.57;;;6.30;99.90;;;;;;5035554;28;20113;-80
2023/02/01 10:02:59;;;;;;;16.90;3.33;;;6.40;99.90;;;;;;5043441;28;20029;-80
2023/02/01 10:05:54;;;;;;;14.77;3.17;;;6.40;99.90;;;;;;5061821;28;20035;-79
2023/02/01 10:08:39;;;;;;;16.48;4.28;;;6.50;99.90;;;;;;5055866;28;20484;-79
2023/02/01 10:11:30;;;;;;;10.85;3.22;;;6.60;99.90;;;;;;5062081;28;20029;-80
2023/02/01 10:14:06;;;;;;;16.02;3.40;;;6.60;99.90;;;;;;5059056;28;20032;-80
2023/02/01 10:16:37;;;;;;;26.73;5.40;;;6.60;99.90;;;;;;5061888;28;20039;-80
2023/02/01 10:19:15;;;;;;;14.32;3.78;;;6.70;99.90;;;;;;5063205;28;20028;-80
2023/02/01 10:22:08;;;;;;;21.75;4.72;;;6.60;99.90;;;;;;5063745;28;20057;-79
2023/02/01 10:25:00;;;;;;;13.10;3.38;;;6.60;99.90;;;;;;5076391;27;20436;-80
2023/02/01 10:27:35;;;;;;;15.52;4.10;;;6.70;99.90;;;;;;5074629;28;20115;-80
2023/02/01 10:30:06;;;;;;;17.75;3.35;;;6.80;99.90;;;;;;5079115;28;20046;-79
2023/02/01 10:32:34;;;;;;;14.55;3.70;;;6.70;99.90;;;;;;5048162;28;20036;-80
2023/02/01 10:35:12;;;;;;;19.63;5.07;;;6.80;99.90;;;;;;5061805;27;20071;-80
2023/02/01 10:37:40;;;;;;;12.07;4.03;;;6.80;99.90;;;;;;5062809;28;20051;-80
2023/02/01 10:40:23;;;;;;;15.45;4.50;;;6.80;99.90;;;;;;5043511;28;20028;-80
2023/02/01 10:42:57;;;;;;;26.98;5.05;;;6.80;99.90;;;;;;5057257;28;20035;-80
2023/02/01 10:45:26;;;;;;;13.45;3.20;;;6.90;99.90;;;;;;5054282;28;20119;-83
2023/02/01 10:47:53;;;;;;;17.33;4.28;;;6.90;99.90;;;;;;5044377;28;20396;-80
2023/02/01 10:50:52;;;;;;;9.82;3.85;;;6.80;99.90;;;;;;5056351;28;20104;-80
2023/02/01 10:53:29;;;;;;;21.48;5.25;;;6.90;99.90;;;;;;5069222;28;20900;-79
2023/02/01 10:55:55;;;;;;;19.60;4.10;;;6.90;99.90;;;;;;5066135;28;20633;-79
2023/02/01 10:58:31;;;;;;;25.23;3.85;;;6.80;99.90;;;;;;5059012;28;20048;-79
2023/02/01 11:01:05;;;;;;;16.23;4.57;;;6.80;99.90;;;;;;5054297;28;20383;-79
2023/02/01 11:03:47;;;;;;;23.25;4.47;;;6.80;99.90;;;;;;5057856;28;20052;-80
2023/02/01 11:06:21;;;;;;;10.30;3.22;;;6.90;99.90;;;;;;5070378;28;20120;-79
2023/02/01 11:08:49;;;;;;;12.07;3.72;;;6.90;99.90;;;;;;5086364;27;20031;-80
2023/02/01 11:11:15;;;;;;;10.50;2.03;;;6.90;99.90;;;;;;5060101;28;20511;-79
2023/02/01 11:13:41;;;;;;;11.45;3.10;;;6.90;99.90;;;;;;5058675;28;20048;-79
2023/02/01 11:16:11;;;;;;;16.63;4.35;;;6.90;99.90;;;;;;5076826;28;20025;-80
2023/02/01 11:18:37;;;;;;;16.45;4.32;;;6.90;99.90;;;;;;5067465;28;20074;-79
2023/02/01 11:21:03;;;;;;;17.63;4.35;;;7.00;99.90;;;;;;5049050;28;20647;-80
2023/02/01 11:23:30;;;;;;;19.60;3.83;;;7.00;99.90;;;;;;5051425;28;20034;-79
2023/02/01 11:26:23;;;;;;;11.38;3.33;;;7.10;99.90;;;;;;5040888;28;20032;-79
2023/02/01 11:29:02;;;;;;;15.90;3.83;;;7.10;99.90;;;;;;5074750;28;20073;-79
2023/02/01 11:31:28;;;;;;;7.88;3.10;;;7.10;99.90;;;;;;5042045;28;20057;-79
2023/02/01 11:33:57;;;;;;;11.32;2.90;;;7.10;99.90;;;;;;5049021;28;20060;-79
2023/02/01 11:36:28;;;;;;;21.92;4.57;;;7.10;99.90;;;;;;5055762;28;20106;-79
2023/02/01 11:39:12;;;;;;;14.95;3.97;;;7.20;99.90;;;;;;5080559;28;20495;-79
2023/02/01 11:41:58;;;;;;;18.15;4.30;;;7.20;99.90;;;;;;5067390;28;20029;-79
2023/02/01 11:44:34;;;;;;;;;;;7.20;99.90;;;;;;5063374;28;20024;-79
2023/02/01 11:47:25;;;;;;;14.02;4.05;;;7.20;99.90;;;;;;5051041;28;20356;-79
2023/02/01 11:49:55;;;;;;;7.50;1.75;;;7.20;99.90;;;;;;5072926;28;20071;-79
2023/02/01 11:52:36;;;;;;;15.95;3.78;;;7.20;99.90;;;;;;5051945;28;20093;-78
2023/02/01 11:55:16;;;;;;;15.93;3.67;;;7.20;99.90;;;;;;5076800;28;20122;-78
2023/02/01 11:57:48;;;;;;;7.85;2.78;;;7.10;99.90;;;;;;5076337;27;20032;-78
2023/02/01 12:00:29;;;;;;;10.63;3.40;;;7.10;99.90;;;;;;5076608;27;20037;-79
2023/02/01 12:02:57;;;;;;;14.05;4.30;;;7.00;99.90;;;;;;5077946;28;20036;-80
2023/02/01 12:05:41;;;;;;;16.25;4.35;;;6.90;99.90;;;;;;5071225;28;20083;-80
2023/02/01 12:08:35;;;;;;;20.45;4.20;;;6.90;99.90;;;;;;5073909;28;20032;-80
2023/02/01 12:11:16;;;;;;;19.67;4.85;;;6.70;99.90;;;;;;5067081;28;20056;-79
2023/02/01 12:14:19;;;;;;;10.15;3.28;;;6.70;99.90;;;;;;5078618;27;20043;-80
2023/02/01 12:17:34;;;;;;;13.40;4.25;;;6.60;99.90;;;;;;5084884;28;20024;-80
2023/02/01 12:20:15;;;;;;;7.47;2.58;;;6.60;99.90;;;;;;5042281;28;20036;-80
2023/02/01 12:23:22;;;;;;;17.48;4.03;;;6.50;99.90;;;;;;5073707;28;20532;-80
2023/02/01 12:26:01;;;;;;;;;;;6.40;99.90;;;;;;5064967;28;20020;-80
2023/02/01 12:28:43;;;;;;;16.33;3.50;;;6.40;99.90;;;;;;5081087;28;20460;-81
2023/02/01 12:31:23;;;;;;;16.20;4.97;;;6.40;99.90;;;;;;5060273;28;20040;-80
2023/02/01 12:33:57;;;;;;;20.13;4.60;;;6.40;99.90;;;;;;5063308;28;20029;-80
2023/02/01 12:36:34;;;;;;;17.83;3.72;;;6.40;99.90;;;;;;5079873;28;20028;-80
2023/02/01 12:39:24;;;;;;;15.98;3.97;;;6.40;99.90;;;;;;5061605;28;20040;-80
2023/02/01 12:41:57;;;;;;;15.30;3.83;;;6.40;99.90;;;;;;5028709;28;20021;-80
2023/02/01 12:44:44;;;;;;;20.23;3.72;;;6.40;99.90;;;;;;5055894;27;20032;-80
2023/02/01 12:47:18;;;;;;;20.15;3.20;;;6.40;99.90;;;;;;5065110;28;20160;-80
2023/02/01 12:50:01;;;;;;;13.38;2.97;;;6.40;99.90;;;;;;5063194;27;20051;-80
2023/02/01 12:52:38;;;;;;;24.10;5.47;;;6.40;99.90;;;;;;5043812;28;20369;-80
2023/02/01 12:55:06;;;;;;;17.50;3.63;;;6.40;99.90;;;;;;5059400;28;20037;-80
2023/02/01 12:57:38;;;;;;;7.72;2.08;;;6.40;99.90;;;;;;5079615;27;20752;-81
2023/02/01 13:00:27;;;;;;;10.43;1.83;;;6.30;99.90;;;;;;5056943;28;20032;-80
2023/02/01 13:02:59;;;;;;;13.13;3.83;;;6.40;99.90;;;;;;5076984;28;20724;-80
2023/02/01 13:05:48;;;;;;;14.38;3.28;;;6.40;99.90;;;;;;5060532;28;20035;-80
2023/02/01 13:08:21;;;;;;;16.38;3.40;;;6.40;99.90;;;;;;5064535;28;20087;-81
2023/02/01 13:11:07;;;;;;;8.73;2.92;;;6.30;99.90;;;;;;5045948;28;20051;-80
2023/02/01 13:13:39;;;;;;;;;;;6.30;99.90;;;;;;5075956;28;20028;-80
2023/02/01 13:16:16;;;;;;;15.90;3.10;;;6.30;99.90;;;;;;5063748;27;19912;-80
2023/02/01 13:18:45;;;;;;;23.42;3.50;;;6.30;99.90;;;;;;5064432;28;20452;-81
2023/02/01 13:21:17;;;;;;;17.20;3.25;;;6.20;99.90;;;;;;5065833;28;20024;-80
2023/02/01 13:23:45;;;;;;;11.13;2.67;;;6.20;99.90;;;;;;5075305;28;20028;-80
2023/02/01 13:26:11;;;;;;;15.13;2.58;;;6.20;99.90;;;;;;5049042;28;20162;-80